sensor_id;sensor_type;location;lat;lon;timestamp;P1;durP1;ratioP1;P2;durP2;ratioP2
2129;SDS011;1071;52.544;13.374;2023-05-07T00:02:04;14.27;;;12.77;;
2129;SDS011;1071;52.544;13.374;2023-05-07T00:04:32;13.75;;;12.43;;
2129;SDS011;1071;52.544;13.374;2023-05-07T00:07:02;13.98;;;12.70;;
2129;SDS011;1071;52.544;13.374;2023-05-07T00:09:31;13.82;;;12.32;;
2129;SDS011;1071;52.544;13.374;2023-05-07T00:11:58;15.88;;;12.57;;
2129;SDS011;1071;52.544;13.374;2023-05-07T00:14:25;11.38;;;10.23;;
2129;SDS011;1071;52.544;13.374;2023-05-07T00:16:52;14.43;;;13.13;;
2129;SDS011;1071;52.544;13.374;2023-05-07T00:19:19;13.63;;;12.25;;
2129;SDS011;1071;52.544;13.374;2023-05-07T00:21:46;12.93;;;11.82;;
2129;SDS011;1071;52.544;13.374;2023-05-07T00:24:13;13.10;;;11.90;;
2129;SDS011;1071;52.544;13.374;2023-05-07T00:26:41;11.88;;;10.77;;
2129;SDS011;1071;52.544;13.374;2023-05-07T00:29:08;12.93;;;11.73;;
2129;SDS011;1071;52.544;13.374;2023-05-07T00:31:35;12.93;;;11.63;;
2129;SDS011;1071;52.544;13.374;2023-05-07T00:34:04;12.02;;;10.93;;
2129;SDS011;1071;52.544;13.374;2023-05-07T00:36:32;12.40;;;11.10;;
2129;SDS011;1071;52.544;13.374;2023-05-07T00:39:00;12.57;;;11.38;;
2129;SDS011;1071;52.544;13.374;2023-05-07T00:41:28;12.82;;;11.63;;
2129;SDS011;1071;52.544;13.374;2023-05-07T00:43:57;12.05;;;10.60;;
2129;SDS011;1071;52.544;13.374;2023-05-07T00:46:27;11.25;;;10.35;;
2129;SDS011;1071;52.544;13.374;2023-05-07T00:48:55;11.60;;;10.60;;
2129;SDS011;1071;52.544;13.374;2023-05-07T00:51:22;12.63;;;11.50;;
2129;SDS011;1071;52.544;13.374;2023-05-07T00:53:52;12.98;;;11.68;;
2129;SDS011;1071;52.544;13.374;2023-05-07T00:56:20;12.88;;;11.68;;
2129;SDS011;1071;52.544;13.374;2023-05-07T00:58:47;11.32;;;10.40;;
2129;SDS011;1071;52.544;13.374;2023-05-07T01:01:16;11.30;;;10.38;;
2129;SDS011;1071;52.544;13.374;2023-05-07T01:03:43;13.35;;;11.52;;
2129;SDS011;1071;52.544;13.374;2023-05-07T01:06:10;13.50;;;11.85;;
2129;SDS011;1071;52.544;13.374;2023-05-07T01:08:41;12.88;;;11.65;;
2129;SDS011;1071;52.544;13.374;2023-05-07T01:11:09;13.48;;;12.18;;
2129;SDS011;1071;52.544;13.374;2023-05-07T01:13:37;11.85;;;10.75;;
2129;SDS011;1071;52.544;13.374;2023-05-07T01:16:09;12.32;;;11.32;;
2129;SDS011;1071;52.544;13.374;2023-05-07T01:18:38;12.32;;;11.23;;
2129;SDS011;1071;52.544;13.374;2023-05-07T01:21:05;12.93;;;11.73;;
2129;SDS011;1071;52.544;13.374;2023-05-07T01:23:34;12.55;;;11.25;;
2129;SDS011;1071;52.544;13.374;2023-05-07T01:26:02;12.02;;;10.98;;
2129;SDS011;1071;52.544;13.374;2023-05-07T01:28:29;12.32;;;11.13;;
2129;SDS011;1071;52.544;13.374;2023-05-07T01:30:58;14.10;;;12.82;;
2129;SDS011;1071;52.544;13.374;2023-05-07T01:33:28;11.23;;;10.13;;
2129;SDS011;1071;52.544;13.374;2023-05-07T01:35:58;13.50;;;12.10;;
2129;SDS011;1071;52.544;13.374;2023-05-07T01:38:28;12.68;;;11.32;;
2129;SDS011;1071;52.544;13.374;2023-05-07T01:40:57;12.80;;;11.35;;
2129;SDS011;1071;52.544;13.374;2023-05-07T01:43:25;13.02;;;11.82;;
2129;SDS011;1071;52.544;13.374;2023-05-07T01:45:52;13.23;;;12.02;;
2129;SDS011;1071;52.544;13.374;2023-05-07T01:48:20;12.52;;;11.23;;
2129;SDS011;1071;52.544;13.374;2023-05-07T01:50:47;13.13;;;11.80;;
2129;SDS011;1071;52.544;13.374;2023-05-07T01:53:15;11.30;;;10.40;;
2129;SDS011;1071;52.544;13.374;2023-05-07T01:55:42;12.50;;;11.13;;
2129;SDS011;1071;52.544;13.374;2023-05-07T01:58:11;11.90;;;10.73;;
2129;SDS011;1071;52.544;13.374;2023-05-07T02:00:39;13.40;;;12.18;;
2129;SDS011;1071;52.544;13.374;2023-05-07T02:03:06;12.80;;;11.50;;
2129;SDS011;1071;52.544;13.374;2023-05-07T02:05:33;12.13;;;10.93;;
2129;SDS011;1071;52.544;13.374;2023-05-07T02:08:00;13.32;;;11.98;;
2129;SDS011;1071;52.544;13.374;2023-05-07T02:10:27;12.75;;;11.68;;
2129;SDS011;1071;52.544;13.374;2023-05-07T02:12:54;11.75;;;10.75;;
2129;SDS011;1071;52.544;13.374;2023-05-07T02:15:22;12.88;;;11.57;;
2129;SDS011;1071;52.544;13.374;2023-05-07T02:17:59;10.85;;;9.85;;
2129;SDS011;1071;52.544;13.374;2023-05-07T02:20:28;13.48;;;12.15;;
2129;SDS011;1071;52.544;13.374;2023-05-07T02:22:55;15.90;;;11.63;;
2129;SDS011;1071;52.544;13.374;2023-05-07T02:25:22;11.32;;;10.18;;
2129;SDS011;1071;52.544;13.374;2023-05-07T02:27:49;12.77;;;11.60;;
2129;SDS011;1071;52.544;13.374;2023-05-07T02:30:16;11.73;;;10.65;;
2129;SDS011;1071;52.544;13.374;2023-05-07T02:32:54;11.38;;;10.32;;
2129;SDS011;1071;52.544;13.374;2023-05-07T02:35:21;11.45;;;10.35;;
2129;SDS011;1071;52.544;13.374;2023-05-07T02:37:51;11.32;;;10.13;;
2129;SDS011;1071;52.544;13.374;2023-05-07T02:40:18;12.80;;;11.55;;
2129;SDS011;1071;52.544;13.374;2023-05-07T02:42:46;11.95;;;10.80;;
2129;SDS011;1071;52.544;13.374;2023-05-07T02:45:13;12.20;;;11.10;;
2129;SDS011;1071;52.544;13.374;2023-05-07T02:47:40;13.63;;;11.25;;
2129;SDS011;1071;52.544;13.374;2023-05-07T02:50:09;11.88;;;10.82;;
2129;SDS011;1071;52.544;13.374;2023-05-07T02:52:37;13.07;;;10.45;;
2129;SDS011;1071;52.544;13.374;2023-05-07T02:55:04;12.75;;;11.20;;
2129;SDS011;1071;52.544;13.374;2023-05-07T02:57:32;11.00;;;9.93;;
2129;SDS011;1071;52.544;13.374;2023-05-07T02:59:59;11.00;;;9.90;;
2129;SDS011;1071;52.544;13.374;2023-05-07T03:02:26;12.18;;;11.23;;
2129;SDS011;1071;52.544;13.374;2023-05-07T03:04:53;11.75;;;10.65;;
2129;SDS011;1071;52.544;13.374;2023-05-07T03:07:21;10.95;;;9.95;;
2129;SDS011;1071;52.544;13.374;2023-05-07T03:09:48;11.43;;;10.27;;
2129;SDS011;1071;52.544;13.374;2023-05-07T03:12:15;10.73;;;9.63;;
2129;SDS011;1071;52.544;13.374;2023-05-07T03:14:42;10.20;;;9.20;;
2129;SDS011;1071;52.544;13.374;2023-05-07T03:17:11;10.88;;;9.90;;
2129;SDS011;1071;52.544;13.374;2023-05-07T03:19:38;11.40;;;9.85;;
2129;SDS011;1071;52.544;13.374;2023-05-07T03:22:06;10.25;;;9.35;;
2129;SDS011;1071;52.544;13.374;2023-05-07T03:24:34;10.30;;;9.35;;
2129;SDS011;1071;52.544;13.374;2023-05-07T03:27:01;10.65;;;9.65;;
2129;SDS011;1071;52.544;13.374;2023-05-07T03:29:28;10.32;;;9.43;;
2129;SDS011;1071;52.544;13.374;2023-05-07T03:31:55;9.68;;;8.77;;
2129;SDS011;1071;52.544;13.374;2023-05-07T03:34:22;10.98;;;9.88;;
2129;SDS011;1071;52.544;13.374;2023-05-07T03:36:49;11.23;;;10.32;;
2129;SDS011;1071;52.544;13.374;2023-05-07T03:39:17;9.50;;;8.73;;
2129;SDS011;1071;52.544;13.374;2023-05-07T03:41:45;11.25;;;10.25;;
2129;SDS011;1071;52.544;13.374;2023-05-07T03:44:12;10.00;;;9.00;;
2129;SDS011;1071;52.544;13.374;2023-05-07T03:46:40;10.10;;;9.20;;
2129;SDS011;1071;52.544;13.374;2023-05-07T03:49:07;11.45;;;10.30;;
2129;SDS011;1071;52.544;13.374;2023-05-07T03:51:34;9.88;;;8.98;;
2129;SDS011;1071;52.544;13.374;2023-05-07T03:54:02;10.57;;;9.57;;
2129;SDS011;1071;52.544;13.374;2023-05-07T03:56:29;10.48;;;9.25;;
2129;SDS011;1071;52.544;13.374;2023-05-07T03:58:58;10.13;;;9.32;;
2129;SDS011;1071;52.544;13.374;2023-05-07T04:01:25;10.60;;;9.60;;
2129;SDS011;1071;52.544;13.374;2023-05-07T04:03:52;10.57;;;9.68;;
2129;SDS011;1071;52.544;13.374;2023-05-07T04:06:19;11.10;;;10.00;;
2129;SDS011;1071;52.544;13.374;2023-05-07T04:08:46;10.30;;;9.50;;
2129;SDS011;1071;52.544;13.374;2023-05-07T04:11:13;11.70;;;10.35;;
2129;SDS011;1071;52.544;13.374;2023-05-07T04:13:43;11.90;;;10.13;;
2129;SDS011;1071;52.544;13.374;2023-05-07T04:16:14;9.57;;;8.70;;
2129;SDS011;1071;52.544;13.374;2023-05-07T04:18:41;9.88;;;8.85;;
2129;SDS011;1071;52.544;13.374;2023-05-07T04:21:13;11.27;;;10.23;;
2129;SDS011;1071;52.544;13.374;2023-05-07T04:23:45;9.80;;;8.65;;
2129;SDS011;1071;52.544;13.374;2023-05-07T04:26:18;9.65;;;8.85;;
2129;SDS011;1071;52.544;13.374;2023-05-07T04:28:46;11.55;;;10.45;;
2129;SDS011;1071;52.544;13.374;2023-05-07T04:31:14;10.15;;;9.15;;
2129;SDS011;1071;52.544;13.374;2023-05-07T04:33:41;9.00;;;8.18;;
2129;SDS011;1071;52.544;13.374;2023-05-07T04:36:08;9.77;;;8.80;;
2129;SDS011;1071;52.544;13.374;2023-05-07T04:38:35;9.98;;;8.38;;
2129;SDS011;1071;52.544;13.374;2023-05-07T04:41:03;10.32;;;9.30;;
2129;SDS011;1071;52.544;13.374;2023-05-07T04:43:32;9.25;;;8.50;;
2129;SDS011;1071;52.544;13.374;2023-05-07T04:45:59;9.20;;;8.30;;
2129;SDS011;1071;52.544;13.374;2023-05-07T04:48:27;9.68;;;8.82;;
2129;SDS011;1071;52.544;13.374;2023-05-07T04:50:55;8.80;;;7.95;;
2129;SDS011;1071;52.544;13.374;2023-05-07T04:53:22;9.88;;;8.95;;
2129;SDS011;1071;52.544;13.374;2023-05-07T04:55:49;8.00;;;7.40;;
2129;SDS011;1071;52.544;13.374;2023-05-07T04:58:20;9.90;;;9.07;;
2129;SDS011;1071;52.544;13.374;2023-05-07T05:00:47;9.35;;;7.82;;
2129;SDS011;1071;52.544;13.374;2023-05-07T05:03:14;8.98;;;8.07;;
2129;SDS011;1071;52.544;13.374;2023-05-07T05:05:43;9.13;;;8.32;;
2129;SDS011;1071;52.544;13.374;2023-05-07T05:08:12;8.57;;;7.80;;
2129;SDS011;1071;52.544;13.374;2023-05-07T05:10:42;8.45;;;7.65;;
2129;SDS011;1071;52.544;13.374;2023-05-07T05:13:09;9.10;;;8.23;;
2129;SDS011;1071;52.544;13.374;2023-05-07T05:15:37;9.32;;;8.43;;
2129;SDS011;1071;52.544;13.374;2023-05-07T05:18:04;8.57;;;7.75;;
2129;SDS011;1071;52.544;13.374;2023-05-07T05:20:31;7.68;;;7.00;;
2129;SDS011;1071;52.544;13.374;2023-05-07T05:23:00;7.93;;;7.22;;
2129;SDS011;1071;52.544;13.374;2023-05-07T05:25:27;8.88;;;7.85;;
2129;SDS011;1071;52.544;13.374;2023-05-07T05:27:54;8.38;;;7.68;;
2129;SDS011;1071;52.544;13.374;2023-05-07T05:30:21;9.45;;;8.57;;
2129;SDS011;1071;52.544;13.374;2023-05-07T05:32:48;8.02;;;7.22;;
2129;SDS011;1071;52.544;13.374;2023-05-07T05:35:15;8.23;;;7.43;;
2129;SDS011;1071;52.544;13.374;2023-05-07T05:37:43;8.27;;;7.53;;
2129;SDS011;1071;52.544;13.374;2023-05-07T05:40:11;8.25;;;7.57;;
2129;SDS011;1071;52.544;13.374;2023-05-07T05:42:38;8.25;;;7.55;;
2129;SDS011;1071;52.544;13.374;2023-05-07T05:45:06;8.57;;;7.45;;
2129;SDS011;1071;52.544;13.374;2023-05-07T05:47:34;8.00;;;7.30;;
2129;SDS011;1071;52.544;13.374;2023-05-07T05:50:01;8.45;;;7.72;;
2129;SDS011;1071;52.544;13.374;2023-05-07T05:52:31;11.60;;;8.50;;
2129;SDS011;1071;52.544;13.374;2023-05-07T05:54:59;8.43;;;7.05;;
2129;SDS011;1071;52.544;13.374;2023-05-07T05:57:27;8.32;;;7.55;;
2129;SDS011;1071;52.544;13.374;2023-05-07T05:59:54;8.52;;;7.63;;
2129;SDS011;1071;52.544;13.374;2023-05-07T06:02:21;9.98;;;8.65;;
2129;SDS011;1071;52.544;13.374;2023-05-07T06:04:48;9.48;;;7.88;;
2129;SDS011;1071;52.544;13.374;2023-05-07T06:07:15;8.40;;;7.70;;
2129;SDS011;1071;52.544;13.374;2023-05-07T06:09:43;8.65;;;7.95;;
2129;SDS011;1071;52.544;13.374;2023-05-07T06:12:09;8.45;;;7.65;;
2129;SDS011;1071;52.544;13.374;2023-05-07T06:14:38;8.75;;;7.85;;
2129;SDS011;1071;52.544;13.374;2023-05-07T06:17:05;8.05;;;7.25;;
2129;SDS011;1071;52.544;13.374;2023-05-07T06:19:34;7.75;;;7.05;;
2129;SDS011;1071;52.544;13.374;2023-05-07T06:22:10;10.32;;;8.60;;
2129;SDS011;1071;52.544;13.374;2023-05-07T06:24:37;8.52;;;7.80;;
2129;SDS011;1071;52.544;13.374;2023-05-07T06:27:08;9.90;;;8.30;;
2129;SDS011;1071;52.544;13.374;2023-05-07T06:29:35;8.30;;;7.55;;
2129;SDS011;1071;52.544;13.374;2023-05-07T06:32:09;8.25;;;7.25;;
2129;SDS011;1071;52.544;13.374;2023-05-07T06:34:37;8.00;;;7.30;;
2129;SDS011;1071;52.544;13.374;2023-05-07T06:37:05;8.23;;;7.45;;
2129;SDS011;1071;52.544;13.374;2023-05-07T06:39:33;10.45;;;7.68;;
2129;SDS011;1071;52.544;13.374;2023-05-07T06:42:00;8.50;;;7.70;;
2129;SDS011;1071;52.544;13.374;2023-05-07T06:44:28;8.45;;;7.65;;
2129;SDS011;1071;52.544;13.374;2023-05-07T06:46:55;7.93;;;7.13;;
2129;SDS011;1071;52.544;13.374;2023-05-07T06:49:24;7.85;;;7.07;;
2129;SDS011;1071;52.544;13.374;2023-05-07T06:51:51;8.13;;;7.47;;
2129;SDS011;1071;52.544;13.374;2023-05-07T06:54:18;7.95;;;7.20;;
2129;SDS011;1071;52.544;13.374;2023-05-07T06:56:47;7.10;;;6.47;;
2129;SDS011;1071;52.544;13.374;2023-05-07T06:59:16;7.60;;;6.90;;
2129;SDS011;1071;52.544;13.374;2023-05-07T07:01:47;8.13;;;6.95;;
2129;SDS011;1071;52.544;13.374;2023-05-07T07:04:16;6.78;;;6.18;;
2129;SDS011;1071;52.544;13.374;2023-05-07T07:06:48;7.43;;;6.68;;
2129;SDS011;1071;52.544;13.374;2023-05-07T07:09:18;6.05;;;5.55;;
2129;SDS011;1071;52.544;13.374;2023-05-07T07:11:45;7.35;;;6.47;;
2129;SDS011;1071;52.544;13.374;2023-05-07T07:14:12;6.25;;;5.72;;
2129;SDS011;1071;52.544;13.374;2023-05-07T07:16:39;6.53;;;5.93;;
2129;SDS011;1071;52.544;13.374;2023-05-07T07:19:06;5.40;;;5.00;;
2129;SDS011;1071;52.544;13.374;2023-05-07T07:21:34;6.38;;;5.88;;
2129;SDS011;1071;52.544;13.374;2023-05-07T07:24:02;5.82;;;5.32;;
2129;SDS011;1071;52.544;13.374;2023-05-07T07:26:30;5.47;;;5.03;;
2129;SDS011;1071;52.544;13.374;2023-05-07T07:29:00;4.60;;;4.30;;
2129;SDS011;1071;52.544;13.374;2023-05-07T07:31:27;5.53;;;5.10;;
2129;SDS011;1071;52.544;13.374;2023-05-07T07:33:55;4.57;;;4.17;;
2129;SDS011;1071;52.544;13.374;2023-05-07T07:36:22;4.93;;;4.43;;
2129;SDS011;1071;52.544;13.374;2023-05-07T07:38:49;4.40;;;3.83;;
2129;SDS011;1071;52.544;13.374;2023-05-07T07:41:17;4.60;;;4.13;;
2129;SDS011;1071;52.544;13.374;2023-05-07T07:43:45;5.10;;;4.60;;
2129;SDS011;1071;52.544;13.374;2023-05-07T07:46:12;4.43;;;4.03;;
2129;SDS011;1071;52.544;13.374;2023-05-07T07:48:40;5.13;;;4.73;;
2129;SDS011;1071;52.544;13.374;2023-05-07T07:51:07;4.80;;;4.40;;
2129;SDS011;1071;52.544;13.374;2023-05-07T07:53:34;5.03;;;4.63;;
2129;SDS011;1071;52.544;13.374;2023-05-07T07:56:00;4.50;;;4.10;;
2129;SDS011;1071;52.544;13.374;2023-05-07T07:58:29;4.17;;;3.87;;
2129;SDS011;1071;52.544;13.374;2023-05-07T08:00:56;4.63;;;4.23;;
2129;SDS011;1071;52.544;13.374;2023-05-07T08:03:24;4.97;;;4.47;;
2129;SDS011;1071;52.544;13.374;2023-05-07T08:05:51;4.33;;;4.03;;
2129;SDS011;1071;52.544;13.374;2023-05-07T08:08:19;3.80;;;3.50;;
2129;SDS011;1071;52.544;13.374;2023-05-07T08:10:46;4.67;;;4.27;;
2129;SDS011;1071;52.544;13.374;2023-05-07T08:13:18;4.27;;;3.80;;
2129;SDS011;1071;52.544;13.374;2023-05-07T08:15:47;3.67;;;3.33;;
2129;SDS011;1071;52.544;13.374;2023-05-07T08:18:14;3.50;;;3.30;;
2129;SDS011;1071;52.544;13.374;2023-05-07T08:20:41;3.47;;;3.23;;
2129;SDS011;1071;52.544;13.374;2023-05-07T08:23:15;3.83;;;3.53;;
2129;SDS011;1071;52.544;13.374;2023-05-07T08:25:45;5.50;;;4.07;;
2129;SDS011;1071;52.544;13.374;2023-05-07T08:28:12;4.20;;;3.73;;
2129;SDS011;1071;52.544;13.374;2023-05-07T08:30:42;4.33;;;4.00;;
2129;SDS011;1071;52.544;13.374;2023-05-07T08:33:13;2.90;;;2.70;;
2129;SDS011;1071;52.544;13.374;2023-05-07T08:35:40;3.50;;;3.10;;
2129;SDS011;1071;52.544;13.374;2023-05-07T08:38:08;3.87;;;3.23;;
2129;SDS011;1071;52.544;13.374;2023-05-07T08:40:38;22.17;;;3.53;;
2129;SDS011;1071;52.544;13.374;2023-05-07T08:43:07;3.33;;;3.03;;
2129;SDS011;1071;52.544;13.374;2023-05-07T08:45:34;3.23;;;2.93;;
2129;SDS011;1071;52.544;13.374;2023-05-07T08:48:03;4.40;;;4.00;;
2129;SDS011;1071;52.544;13.374;2023-05-07T08:50:35;3.50;;;3.20;;
2129;SDS011;1071;52.544;13.374;2023-05-07T08:53:03;4.10;;;3.67;;
2129;SDS011;1071;52.544;13.374;2023-05-07T08:55:30;5.23;;;4.73;;
2129;SDS011;1071;52.544;13.374;2023-05-07T08:57:58;5.93;;;3.70;;
2129;SDS011;1071;52.544;13.374;2023-05-07T09:00:25;6.57;;;4.30;;
2129;SDS011;1071;52.544;13.374;2023-05-07T09:02:53;7.50;;;4.03;;
2129;SDS011;1071;52.544;13.374;2023-05-07T09:05:21;3.50;;;3.30;;
2129;SDS011;1071;52.544;13.374;2023-05-07T09:07:49;6.47;;;4.10;;
2129;SDS011;1071;52.544;13.374;2023-05-07T09:10:20;8.07;;;3.67;;
2129;SDS011;1071;52.544;13.374;2023-05-07T09:12:47;3.70;;;3.40;;
2129;SDS011;1071;52.544;13.374;2023-05-07T09:15:15;3.07;;;2.80;;
2129;SDS011;1071;52.544;13.374;2023-05-07T09:17:42;3.43;;;3.17;;
2129;SDS011;1071;52.544;13.374;2023-05-07T09:20:13;7.53;;;3.63;;
2129;SDS011;1071;52.544;13.374;2023-05-07T09:22:41;3.53;;;3.23;;
2129;SDS011;1071;52.544;13.374;2023-05-07T09:25:09;4.80;;;3.27;;
2129;SDS011;1071;52.544;13.374;2023-05-07T09:27:38;4.90;;;3.70;;
2129;SDS011;1071;52.544;13.374;2023-05-07T09:30:05;3.37;;;3.17;;
2129;SDS011;1071;52.544;13.374;2023-05-07T09:32:34;4.27;;;3.90;;
2129;SDS011;1071;52.544;13.374;2023-05-07T09:35:03;3.80;;;3.40;;
2129;SDS011;1071;52.544;13.374;2023-05-07T09:37:31;4.37;;;3.97;;
2129;SDS011;1071;52.544;13.374;2023-05-07T09:39:59;5.73;;;5.27;;
2129;SDS011;1071;52.544;13.374;2023-05-07T09:42:26;3.50;;;3.20;;
2129;SDS011;1071;52.544;13.374;2023-05-07T09:44:54;3.93;;;3.47;;
2129;SDS011;1071;52.544;13.374;2023-05-07T09:47:22;3.70;;;3.40;;
2129;SDS011;1071;52.544;13.374;2023-05-07T09:49:52;3.47;;;3.17;;
2129;SDS011;1071;52.544;13.374;2023-05-07T09:52:22;4.57;;;4.17;;
2129;SDS011;1071;52.544;13.374;2023-05-07T09:54:50;4.40;;;4.00;;
2129;SDS011;1071;52.544;13.374;2023-05-07T09:57:21;3.67;;;3.37;;
2129;SDS011;1071;52.544;13.374;2023-05-07T09:59:50;3.47;;;2.67;;
2129;SDS011;1071;52.544;13.374;2023-05-07T10:02:19;4.60;;;4.10;;
2129;SDS011;1071;52.544;13.374;2023-05-07T10:04:47;4.97;;;3.07;;
2129;SDS011;1071;52.544;13.374;2023-05-07T10:07:15;3.20;;;2.90;;
2129;SDS011;1071;52.544;13.374;2023-05-07T10:09:43;2.30;;;2.10;;
2129;SDS011;1071;52.544;13.374;2023-05-07T10:12:11;3.23;;;3.03;;
2129;SDS011;1071;52.544;13.374;2023-05-07T10:14:40;6.07;;;3.30;;
2129;SDS011;1071;52.544;13.374;2023-05-07T10:17:08;3.57;;;2.77;;
2129;SDS011;1071;52.544;13.374;2023-05-07T10:19:37;3.77;;;3.37;;
2129;SDS011;1071;52.544;13.374;2023-05-07T10:22:05;2.53;;;2.33;;
2129;SDS011;1071;52.544;13.374;2023-05-07T10:24:34;2.50;;;2.10;;
2129;SDS011;1071;52.544;13.374;2023-05-07T10:27:04;2.33;;;2.10;;
2129;SDS011;1071;52.544;13.374;2023-05-07T10:29:42;1.90;;;1.70;;
2129;SDS011;1071;52.544;13.374;2023-05-07T10:32:30;2.80;;;2.43;;
2129;SDS011;1071;52.544;13.374;2023-05-07T10:35:04;2.00;;;1.90;;
2129;SDS011;1071;52.544;13.374;2023-05-07T10:37:36;2.27;;;2.17;;
2129;SDS011;1071;52.544;13.374;2023-05-07T10:40:04;3.50;;;3.20;;
2129;SDS011;1071;52.544;13.374;2023-05-07T10:42:32;2.33;;;1.70;;
2129;SDS011;1071;52.544;13.374;2023-05-07T10:45:12;2.20;;;2.00;;
2129;SDS011;1071;52.544;13.374;2023-05-07T10:50:37;2.67;;;2.40;;
2129;SDS011;1071;52.544;13.374;2023-05-07T10:53:21;2.50;;;2.30;;
2129;SDS011;1071;52.544;13.374;2023-05-07T10:55:51;2.83;;;2.30;;
2129;SDS011;1071;52.544;13.374;2023-05-07T10:58:35;2.07;;;1.90;;
2129;SDS011;1071;52.544;13.374;2023-05-07T11:01:05;2.60;;;2.40;;
2129;SDS011;1071;52.544;13.374;2023-05-07T11:03:37;2.70;;;2.20;;
2129;SDS011;1071;52.544;13.374;2023-05-07T11:06:40;2.20;;;2.00;;
2129;SDS011;1071;52.544;13.374;2023-05-07T11:09:07;2.37;;;2.20;;
2129;SDS011;1071;52.544;13.374;2023-05-07T11:11:44;2.40;;;2.20;;
2129;SDS011;1071;52.544;13.374;2023-05-07T11:14:11;2.33;;;2.13;;
2129;SDS011;1071;52.544;13.374;2023-05-07T11:16:40;2.27;;;1.97;;
2129;SDS011;1071;52.544;13.374;2023-05-07T11:19:09;3.20;;;2.50;;
2129;SDS011;1071;52.544;13.374;2023-05-07T11:21:37;3.33;;;2.87;;
2129;SDS011;1071;52.544;13.374;2023-05-07T11:24:05;2.83;;;2.53;;
2129;SDS011;1071;52.544;13.374;2023-05-07T11:26:46;2.77;;;2.57;;
2129;SDS011;1071;52.544;13.374;2023-05-07T11:29:15;5.97;;;2.37;;
2129;SDS011;1071;52.544;13.374;2023-05-07T11:31:44;2.53;;;2.33;;
2129;SDS011;1071;52.544;13.374;2023-05-07T11:34:15;2.43;;;2.23;;
2129;SDS011;1071;52.544;13.374;2023-05-07T11:36:49;2.80;;;2.60;;
2129;SDS011;1071;52.544;13.374;2023-05-07T11:39:23;3.30;;;2.50;;
2129;SDS011;1071;52.544;13.374;2023-05-07T11:41:54;2.23;;;2.03;;
2129;SDS011;1071;52.544;13.374;2023-05-07T11:44:22;2.50;;;2.30;;
2129;SDS011;1071;52.544;13.374;2023-05-07T11:46:50;2.60;;;2.20;;
2129;SDS011;1071;52.544;13.374;2023-05-07T11:49:17;2.30;;;2.10;;
2129;SDS011;1071;52.544;13.374;2023-05-07T11:51:45;2.37;;;2.13;;
2129;SDS011;1071;52.544;13.374;2023-05-07T11:54:15;3.13;;;2.93;;
2129;SDS011;1071;52.544;13.374;2023-05-07T11:56:43;3.27;;;2.30;;
2129;SDS011;1071;52.544;13.374;2023-05-07T11:59:12;3.07;;;2.03;;
2129;SDS011;1071;52.544;13.374;2023-05-07T12:01:44;4.37;;;2.70;;
2129;SDS011;1071;52.544;13.374;2023-05-07T12:04:13;2.53;;;2.33;;
2129;SDS011;1071;52.544;13.374;2023-05-07T12:06:45;2.10;;;2.00;;
2129;SDS011;1071;52.544;13.374;2023-05-07T12:09:17;2.27;;;2.03;;
2129;SDS011;1071;52.544;13.374;2023-05-07T12:11:45;1.80;;;1.70;;
2129;SDS011;1071;52.544;13.374;2023-05-07T12:14:12;2.20;;;2.00;;
2129;SDS011;1071;52.544;13.374;2023-05-07T12:16:40;1.90;;;1.80;;
2129;SDS011;1071;52.544;13.374;2023-05-07T12:19:08;2.17;;;1.97;;
2129;SDS011;1071;52.544;13.374;2023-05-07T12:21:38;2.37;;;2.00;;
2129;SDS011;1071;52.544;13.374;2023-05-07T12:24:06;3.00;;;2.10;;
2129;SDS011;1071;52.544;13.374;2023-05-07T12:26:37;2.30;;;2.10;;
2129;SDS011;1071;52.544;13.374;2023-05-07T12:29:05;3.97;;;2.03;;
2129;SDS011;1071;52.544;13.374;2023-05-07T12:31:32;3.33;;;3.03;;
2129;SDS011;1071;52.544;13.374;2023-05-07T12:33:59;2.20;;;2.00;;
2129;SDS011;1071;52.544;13.374;2023-05-07T12:36:36;2.37;;;2.00;;
2129;SDS011;1071;52.544;13.374;2023-05-07T12:39:05;1.93;;;1.83;;
2129;SDS011;1071;52.544;13.374;2023-05-07T12:41:35;2.17;;;1.97;;
2129;SDS011;1071;52.544;13.374;2023-05-07T12:44:18;3.80;;;1.73;;
2129;SDS011;1071;52.544;13.374;2023-05-07T12:46:46;3.77;;;2.50;;
2129;SDS011;1071;52.544;13.374;2023-05-07T12:49:13;2.70;;;1.73;;
2129;SDS011;1071;52.544;13.374;2023-05-07T12:51:40;2.03;;;1.93;;
2129;SDS011;1071;52.544;13.374;2023-05-07T12:54:08;2.80;;;2.17;;
2129;SDS011;1071;52.544;13.374;2023-05-07T12:56:35;2.67;;;2.17;;
2129;SDS011;1071;52.544;13.374;2023-05-07T12:59:02;2.17;;;2.07;;
2129;SDS011;1071;52.544;13.374;2023-05-07T13:01:29;2.30;;;2.10;;
2129;SDS011;1071;52.544;13.374;2023-05-07T13:04:00;2.17;;;1.97;;
2129;SDS011;1071;52.544;13.374;2023-05-07T13:06:29;2.50;;;2.30;;
2129;SDS011;1071;52.544;13.374;2023-05-07T13:08:56;2.97;;;2.30;;
2129;SDS011;1071;52.544;13.374;2023-05-07T13:11:25;2.37;;;2.17;;
2129;SDS011;1071;52.544;13.374;2023-05-07T13:13:51;2.40;;;2.20;;
2129;SDS011;1071;52.544;13.374;2023-05-07T13:16:18;1.60;;;1.50;;
2129;SDS011;1071;52.544;13.374;2023-05-07T13:18:45;1.63;;;1.53;;
2129;SDS011;1071;52.544;13.374;2023-05-07T13:21:12;2.40;;;2.20;;
2129;SDS011;1071;52.544;13.374;2023-05-07T13:23:39;2.47;;;1.67;;
2129;SDS011;1071;52.544;13.374;2023-05-07T13:26:06;2.60;;;2.17;;
2129;SDS011;1071;52.544;13.374;2023-05-07T13:28:35;2.17;;;1.97;;
2129;SDS011;1071;52.544;13.374;2023-05-07T13:31:02;2.80;;;2.40;;
2129;SDS011;1071;52.544;13.374;2023-05-07T13:33:29;4.33;;;2.40;;
2129;SDS011;1071;52.544;13.374;2023-05-07T13:35:56;2.07;;;1.93;;
2129;SDS011;1071;52.544;13.374;2023-05-07T13:38:25;2.30;;;2.10;;
2129;SDS011;1071;52.544;13.374;2023-05-07T13:40:52;3.67;;;2.20;;
2129;SDS011;1071;52.544;13.374;2023-05-07T13:43:19;4.87;;;2.23;;
2129;SDS011;1071;52.544;13.374;2023-05-07T13:45:48;2.60;;;2.30;;
2129;SDS011;1071;52.544;13.374;2023-05-07T13:48:15;2.17;;;1.90;;
2129;SDS011;1071;52.544;13.374;2023-05-07T13:50:42;2.23;;;2.00;;
2129;SDS011;1071;52.544;13.374;2023-05-07T13:53:09;2.40;;;2.10;;
2129;SDS011;1071;52.544;13.374;2023-05-07T13:55:36;2.00;;;1.87;;
2129;SDS011;1071;52.544;13.374;2023-05-07T13:58:03;2.87;;;1.77;;
2129;SDS011;1071;52.544;13.374;2023-05-07T14:00:30;2.27;;;2.17;;
2129;SDS011;1071;52.544;13.374;2023-05-07T14:02:58;2.30;;;1.97;;
2129;SDS011;1071;52.544;13.374;2023-05-07T14:05:25;2.40;;;2.20;;
2129;SDS011;1071;52.544;13.374;2023-05-07T14:07:53;2.40;;;2.20;;
2129;SDS011;1071;52.544;13.374;2023-05-07T14:10:20;2.80;;;2.33;;
2129;SDS011;1071;52.544;13.374;2023-05-07T14:12:47;1.77;;;1.67;;
2129;SDS011;1071;52.544;13.374;2023-05-07T14:15:14;2.10;;;1.90;;
2129;SDS011;1071;52.544;13.374;2023-05-07T14:17:42;1.53;;;1.43;;
2129;SDS011;1071;52.544;13.374;2023-05-07T14:20:11;1.93;;;1.50;;
2129;SDS011;1071;52.544;13.374;2023-05-07T14:22:38;1.63;;;1.53;;
2129;SDS011;1071;52.544;13.374;2023-05-07T14:25:06;2.53;;;1.80;;
2129;SDS011;1071;52.544;13.374;2023-05-07T14:27:34;3.90;;;2.20;;
2129;SDS011;1071;52.544;13.374;2023-05-07T14:30:01;4.63;;;2.20;;
2129;SDS011;1071;52.544;13.374;2023-05-07T14:32:28;2.37;;;2.17;;
2129;SDS011;1071;52.544;13.374;2023-05-07T14:34:55;1.93;;;1.80;;
2129;SDS011;1071;52.544;13.374;2023-05-07T14:37:24;2.97;;;2.30;;
2129;SDS011;1071;52.544;13.374;2023-05-07T14:39:51;2.20;;;2.00;;
2129;SDS011;1071;52.544;13.374;2023-05-07T14:42:18;3.70;;;2.83;;
2129;SDS011;1071;52.544;13.374;2023-05-07T14:44:45;2.17;;;1.83;;
2129;SDS011;1071;52.544;13.374;2023-05-07T14:47:13;1.93;;;1.80;;
2129;SDS011;1071;52.544;13.374;2023-05-07T14:49:41;1.97;;;1.80;;
2129;SDS011;1071;52.544;13.374;2023-05-07T14:52:08;2.00;;;1.70;;
2129;SDS011;1071;52.544;13.374;2023-05-07T14:54:36;2.27;;;2.03;;
2129;SDS011;1071;52.544;13.374;2023-05-07T14:57:04;1.70;;;1.30;;
2129;SDS011;1071;52.544;13.374;2023-05-07T14:59:32;1.27;;;1.17;;
2129;SDS011;1071;52.544;13.374;2023-05-07T15:01:59;1.57;;;1.40;;
2129;SDS011;1071;52.544;13.374;2023-05-07T15:04:26;1.53;;;1.43;;
2129;SDS011;1071;52.544;13.374;2023-05-07T15:06:54;2.10;;;1.90;;